sensor_id;sensor_type;location;lat;lon;timestamp;temperature;humidity
66343;DHT22;53144;51.524;5.080;2023-07-24T00:01:01;17.61;99.99
66343;DHT22;53144;51.524;5.080;2023-07-24T00:03:26;17.63;99.99
66343;DHT22;53144;51.524;5.080;2023-07-24T00:05:52;17.61;99.99
66343;DHT22;53144;51.524;5.080;2023-07-24T00:08:17;17.59;99.99
66343;DHT22;53144;51.524;5.080;2023-07-24T00:10:43;17.63;99.99
66343;DHT22;53144;51.524;5.080;2023-07-24T00:13:08;17.62;99.99
66343;DHT22;53144;51.524;5.080;2023-07-24T00:15:33;17.62;99.99
66343;DHT22;53144;51.524;5.080;2023-07-24T00:17:59;17.65;99.99
66343;DHT22;53144;51.524;5.080;2023-07-24T00:20:24;17.61;99.99
66343;DHT22;53144;51.524;5.080;2023-07-24T00:22:50;17.62;99.99
66343;DHT22;53144;51.524;5.080;2023-07-24T00:25:16;17.61;99.99
66343;DHT22;53144;51.524;5.080;2023-07-24T00:27:41;17.56;99.99
66343;DHT22;53144;51.524;5.080;2023-07-24T00:30:07;17.58;99.99
66343;DHT22;53144;51.524;5.080;2023-07-24T00:32:32;17.55;99.99
66343;DHT22;53144;51.524;5.080;2023-07-24T00:34:58;17.53;99.99
66343;DHT22;53144;51.524;5.080;2023-07-24T00:37:24;17.53;99.99
66343;DHT22;53144;51.524;5.080;2023-07-24T00:39:49;17.51;99.99
66343;DHT22;53144;51.524;5.080;2023-07-24T00:42:15;17.53;99.99
66343;DHT22;53144;51.524;5.080;2023-07-24T00:44:40;17.48;99.99
66343;DHT22;53144;51.524;5.080;2023-07-24T00:47:06;17.46;99.99
66343;DHT22;53144;51.524;5.080;2023-07-24T00:49:31;17.46;99.99
66343;DHT22;53144;51.524;5.080;2023-07-24T00:51:57;17.48;99.99
66343;DHT22;53144;51.524;5.080;2023-07-24T00:54:23;17.46;99.99
66343;DHT22;53144;51.524;5.080;2023-07-24T00:56:49;17.46;99.99
66343;DHT22;53144;51.524;5.080;2023-07-24T00:59:15;17.45;99.99
66343;DHT22;53144;51.524;5.080;2023-07-24T01:01:42;17.45;99.99
66343;DHT22;53144;51.524;5.080;2023-07-24T01:04:08;17.45;99.99
66343;DHT22;53144;51.524;5.080;2023-07-24T01:06:33;17.44;99.99
66343;DHT22;53144;51.524;5.080;2023-07-24T01:08:59;17.46;99.99
66343;DHT22;53144;51.524;5.080;2023-07-24T01:11:28;17.46;99.99
66343;DHT22;53144;51.524;5.080;2023-07-24T01:14:02;17.46;99.99
66343;DHT22;53144;51.524;5.080;2023-07-24T01:16:37;17.45;99.99
66343;DHT22;53144;51.524;5.080;2023-07-24T01:19:11;17.46;99.99
66343;DHT22;53144;51.524;5.080;2023-07-24T01:21:52;17.45;99.99
66343;DHT22;53144;51.524;5.080;2023-07-24T01:24:32;17.45;99.99
66343;DHT22;53144;51.524;5.080;2023-07-24T01:26:58;17.42;99.99
66343;DHT22;53144;51.524;5.080;2023-07-24T01:29:24;17.45;99.99
66343;DHT22;53144;51.524;5.080;2023-07-24T01:31:50;17.45;99.99
66343;DHT22;53144;51.524;5.080;2023-07-24T01:34:15;17.44;99.99
66343;DHT22;53144;51.524;5.080;2023-07-24T01:36:40;17.44;99.99
66343;DHT22;53144;51.524;5.080;2023-07-24T01:39:06;17.46;99.99
66343;DHT22;53144;51.524;5.080;2023-07-24T01:41:32;17.45;99.99
66343;DHT22;53144;51.524;5.080;2023-07-24T01:43:59;17.46;99.99
66343;DHT22;53144;51.524;5.080;2023-07-24T01:46:25;17.44;99.99
66343;DHT22;53144;51.524;5.080;2023-07-24T01:48:50;17.39;99.99
66343;DHT22;53144;51.524;5.080;2023-07-24T01:51:17;17.44;99.99
66343;DHT22;53144;51.524;5.080;2023-07-24T01:53:43;17.38;99.99
66343;DHT22;53144;51.524;5.080;2023-07-24T01:56:08;17.39;99.99
66343;DHT22;53144;51.524;5.080;2023-07-24T01:58:33;17.35;99.99
66343;DHT22;53144;51.524;5.080;2023-07-24T02:00:59;17.34;99.99
66343;DHT22;53144;51.524;5.080;2023-07-24T02:03:24;17.34;99.99
66343;DHT22;53144;51.524;5.080;2023-07-24T02:05:50;17.31;99.99
66343;DHT22;53144;51.524;5.080;2023-07-24T02:08:16;17.35;99.99
66343;DHT22;53144;51.524;5.080;2023-07-24T02:10:41;17.34;99.99
66343;DHT22;53144;51.524;5.080;2023-07-24T02:13:07;17.34;99.99
66343;DHT22;53144;51.524;5.080;2023-07-24T02:15:32;17.31;99.99
66343;DHT22;53144;51.524;5.080;2023-07-24T02:17:58;17.28;99.99
66343;DHT22;53144;51.524;5.080;2023-07-24T02:20:23;17.27;99.99
66343;DHT22;53144;51.524;5.080;2023-07-24T02:22:48;17.24;99.99
66343;DHT22;53144;51.524;5.080;2023-07-24T02:25:14;17.22;99.99
66343;DHT22;53144;51.524;5.080;2023-07-24T02:27:39;17.27;99.99
66343;DHT22;53144;51.524;5.080;2023-07-24T02:30:05;17.25;99.99
66343;DHT22;53144;51.524;5.080;2023-07-24T02:32:31;17.21;99.99
66343;DHT22;53144;51.524;5.080;2023-07-24T02:34:57;17.20;99.99
66343;DHT22;53144;51.524;5.080;2023-07-24T02:37:22;17.17;99.99
66343;DHT22;53144;51.524;5.080;2023-07-24T02:39:48;17.11;99.99
66343;DHT22;53144;51.524;5.080;2023-07-24T02:42:13;17.07;99.99
66343;DHT22;53144;51.524;5.080;2023-07-24T02:44:39;17.08;99.99
66343;DHT22;53144;51.524;5.080;2023-07-24T02:47:04;17.07;99.99
66343;DHT22;53144;51.524;5.080;2023-07-24T02:49:29;17.06;99.99
66343;DHT22;53144;51.524;5.080;2023-07-24T02:51:55;17.06;99.99
66343;DHT22;53144;51.524;5.080;2023-07-24T02:54:20;17.08;99.99
66343;DHT22;53144;51.524;5.080;2023-07-24T02:56:46;17.08;99.99
66343;DHT22;53144;51.524;5.080;2023-07-24T02:59:11;17.08;99.99
66343;DHT22;53144;51.524;5.080;2023-07-24T03:01:37;17.06;99.99
66343;DHT22;53144;51.524;5.080;2023-07-24T03:04:02;17.06;99.99
66343;DHT22;53144;51.524;5.080;2023-07-24T03:06:30;17.03;99.99
66343;DHT22;53144;51.524;5.080;2023-07-24T03:08:55;17.04;99.99
66343;DHT22;53144;51.524;5.080;2023-07-24T03:11:21;17.04;99.99
66343;DHT22;53144;51.524;5.080;2023-07-24T03:13:46;17.01;99.99
66343;DHT22;53144;51.524;5.080;2023-07-24T03:16:12;16.99;99.99
66343;DHT22;53144;51.524;5.080;2023-07-24T03:18:37;16.97;99.99
66343;DHT22;53144;51.524;5.080;2023-07-24T03:21:03;16.94;99.99
66343;DHT22;53144;51.524;5.080;2023-07-24T03:23:28;16.94;99.99
66343;DHT22;53144;51.524;5.080;2023-07-24T03:25:54;16.93;99.99
66343;DHT22;53144;51.524;5.080;2023-07-24T03:28:19;16.88;99.99
66343;DHT22;53144;51.524;5.080;2023-07-24T03:30:45;16.87;99.99
66343;DHT22;53144;51.524;5.080;2023-07-24T03:33:10;16.85;99.99
66343;DHT22;53144;51.524;5.080;2023-07-24T03:35:38;16.79;99.99
66343;DHT22;53144;51.524;5.080;2023-07-24T03:38:04;16.83;99.99
66343;DHT22;53144;51.524;5.080;2023-07-24T03:40:29;16.76;99.99
66343;DHT22;53144;51.524;5.080;2023-07-24T03:42:54;16.72;99.99
66343;DHT22;53144;51.524;5.080;2023-07-24T03:45:20;16.70;99.99
66343;DHT22;53144;51.524;5.080;2023-07-24T03:47:45;16.69;99.99
66343;DHT22;53144;51.524;5.080;2023-07-24T03:50:11;16.64;99.99
66343;DHT22;53144;51.524;5.080;2023-07-24T03:52:37;16.56;99.99
66343;DHT22;53144;51.524;5.080;2023-07-24T03:55:03;16.46;99.99
66343;DHT22;53144;51.524;5.080;2023-07-24T03:57:28;16.41;99.99
66343;DHT22;53144;51.524;5.080;2023-07-24T03:59:54;16.38;99.99
66343;DHT22;53144;51.524;5.080;2023-07-24T04:02:19;16.30;99.99
66343;DHT22;53144;51.524;5.080;2023-07-24T04:04:44;16.29;99.99
66343;DHT22;53144;51.524;5.080;2023-07-24T04:07:10;16.22;99.99
66343;DHT22;53144;51.524;5.080;2023-07-24T04:09:35;16.16;99.99
66343;DHT22;53144;51.524;5.080;2023-07-24T04:12:01;16.16;99.99
66343;DHT22;53144;51.524;5.080;2023-07-24T04:14:26;16.09;99.99
66343;DHT22;53144;51.524;5.080;2023-07-24T04:16:51;16.00;99.99
66343;DHT22;53144;51.524;5.080;2023-07-24T04:19:17;16.04;99.99
66343;DHT22;53144;51.524;5.080;2023-07-24T04:21:42;15.95;99.99
66343;DHT22;53144;51.524;5.080;2023-07-24T04:24:07;15.95;99.99
66343;DHT22;53144;51.524;5.080;2023-07-24T04:26:33;15.93;99.99
66343;DHT22;53144;51.524;5.080;2023-07-24T04:28:58;15.93;99.99
66343;DHT22;53144;51.524;5.080;2023-07-24T04:31:24;15.88;99.99
66343;DHT22;53144;51.524;5.080;2023-07-24T04:33:49;15.91;99.99
66343;DHT22;53144;51.524;5.080;2023-07-24T04:36:14;15.93;99.99
66343;DHT22;53144;51.524;5.080;2023-07-24T04:38:40;15.90;99.99
66343;DHT22;53144;51.524;5.080;2023-07-24T04:41:05;15.91;99.99
66343;DHT22;53144;51.524;5.080;2023-07-24T04:43:31;15.91;99.99
66343;DHT22;53144;51.524;5.080;2023-07-24T04:45:56;15.91;99.99
66343;DHT22;53144;51.524;5.080;2023-07-24T04:48:21;15.90;99.99
66343;DHT22;53144;51.524;5.080;2023-07-24T04:50:53;15.95;99.99
66343;DHT22;53144;51.524;5.080;2023-07-24T04:53:18;15.93;99.99
66343;DHT22;53144;51.524;5.080;2023-07-24T04:55:45;15.91;99.99
66343;DHT22;53144;51.524;5.080;2023-07-24T04:58:10;15.95;99.99
66343;DHT22;53144;51.524;5.080;2023-07-24T05:00:36;15.98;99.99
66343;DHT22;53144;51.524;5.080;2023-07-24T05:03:01;15.93;99.99
66343;DHT22;53144;51.524;5.080;2023-07-24T05:05:27;15.84;99.99
66343;DHT22;53144;51.524;5.080;2023-07-24T05:07:52;15.91;99.99
66343;DHT22;53144;51.524;5.080;2023-07-24T05:10:17;15.91;99.99
66343;DHT22;53144;51.524;5.080;2023-07-24T05:12:43;15.93;99.99
66343;DHT22;53144;51.524;5.080;2023-07-24T05:15:08;15.93;99.99
66343;DHT22;53144;51.524;5.080;2023-07-24T05:17:34;15.93;99.99
66343;DHT22;53144;51.524;5.080;2023-07-24T05:19:59;15.91;99.99
66343;DHT22;53144;51.524;5.080;2023-07-24T05:22:25;15.91;99.99
66343;DHT22;53144;51.524;5.080;2023-07-24T05:24:50;15.94;99.99
66343;DHT22;53144;51.524;5.080;2023-07-24T05:27:15;15.95;99.99
66343;DHT22;53144;51.524;5.080;2023-07-24T05:29:41;15.93;99.99
66343;DHT22;53144;51.524;5.080;2023-07-24T05:32:06;15.91;99.99
66343;DHT22;53144;51.524;5.080;2023-07-24T05:34:32;15.97;99.99
66343;DHT22;53144;51.524;5.080;2023-07-24T05:36:57;15.95;99.99
66343;DHT22;53144;51.524;5.080;2023-07-24T05:39:22;15.93;99.99
66343;DHT22;53144;51.524;5.080;2023-07-24T05:41:48;15.97;99.99
66343;DHT22;53144;51.524;5.080;2023-07-24T05:44:14;15.93;99.99
66343;DHT22;53144;51.524;5.080;2023-07-24T05:46:39;15.94;99.99
66343;DHT22;53144;51.524;5.080;2023-07-24T05:49:04;15.90;99.99
66343;DHT22;53144;51.524;5.080;2023-07-24T05:51:30;15.97;99.99
66343;DHT22;53144;51.524;5.080;2023-07-24T05:53:55;16.06;99.99
66343;DHT22;53144;51.524;5.080;2023-07-24T05:56:21;16.21;99.99
66343;DHT22;53144;51.524;5.080;2023-07-24T05:58:46;16.28;99.99
66343;DHT22;53144;51.524;5.080;2023-07-24T06:01:11;16.30;99.99
66343;DHT22;53144;51.524;5.080;2023-07-24T06:03:37;16.32;99.99
66343;DHT22;53144;51.524;5.080;2023-07-24T06:06:04;16.32;99.99
66343;DHT22;53144;51.524;5.080;2023-07-24T06:08:29;16.29;99.99
66343;DHT22;53144;51.524;5.080;2023-07-24T06:10:55;16.33;99.99
66343;DHT22;53144;51.524;5.080;2023-07-24T06:13:20;16.46;99.99
66343;DHT22;53144;51.524;5.080;2023-07-24T06:15:49;16.46;99.99
66343;DHT22;53144;51.524;5.080;2023-07-24T06:18:15;16.49;99.99
66343;DHT22;53144;51.524;5.080;2023-07-24T06:20:40;16.49;99.99
66343;DHT22;53144;51.524;5.080;2023-07-24T06:23:06;16.49;99.99
66343;DHT22;53144;51.524;5.080;2023-07-24T06:25:32;16.56;99.99
66343;DHT22;53144;51.524;5.080;2023-07-24T06:27:58;16.63;99.99
66343;DHT22;53144;51.524;5.080;2023-07-24T06:30:25;16.64;99.99
66343;DHT22;53144;51.524;5.080;2023-07-24T06:32:51;16.67;99.99
66343;DHT22;53144;51.524;5.080;2023-07-24T06:35:16;16.76;99.99
66343;DHT22;53144;51.524;5.080;2023-07-24T06:37:41;16.73;99.99
66343;DHT22;53144;51.524;5.080;2023-07-24T06:40:07;16.67;99.99
66343;DHT22;53144;51.524;5.080;2023-07-24T06:42:33;16.67;99.99
66343;DHT22;53144;51.524;5.080;2023-07-24T06:44:59;16.66;99.99
66343;DHT22;53144;51.524;5.080;2023-07-24T06:47:24;16.59;99.99
66343;DHT22;53144;51.524;5.080;2023-07-24T06:49:50;16.56;99.99
66343;DHT22;53144;51.524;5.080;2023-07-24T06:52:15;16.56;99.99
66343;DHT22;53144;51.524;5.080;2023-07-24T06:54:41;16.57;99.99
66343;DHT22;53144;51.524;5.080;2023-07-24T06:57:06;16.55;99.99
66343;DHT22;53144;51.524;5.080;2023-07-24T06:59:31;16.52;99.99
66343;DHT22;53144;51.524;5.080;2023-07-24T07:01:57;16.51;99.99
66343;DHT22;53144;51.524;5.080;2023-07-24T07:04:22;16.51;99.99
66343;DHT22;53144;51.524;5.080;2023-07-24T07:06:48;16.62;99.99
66343;DHT22;53144;51.524;5.080;2023-07-24T07:09:13;16.60;99.99
66343;DHT22;53144;51.524;5.080;2023-07-24T07:11:38;16.60;99.99
66343;DHT22;53144;51.524;5.080;2023-07-24T07:14:04;16.55;99.99
66343;DHT22;53144;51.524;5.080;2023-07-24T07:16:29;16.53;99.99
66343;DHT22;53144;51.524;5.080;2023-07-24T07:18:55;16.64;99.99
66343;DHT22;53144;51.524;5.080;2023-07-24T07:21:20;16.64;99.99
66343;DHT22;53144;51.524;5.080;2023-07-24T07:23:45;16.88;99.99
66343;DHT22;53144;51.524;5.080;2023-07-24T07:26:11;16.94;99.99
66343;DHT22;53144;51.524;5.080;2023-07-24T07:28:36;16.91;99.99
66343;DHT22;53144;51.524;5.080;2023-07-24T07:31:03;16.90;99.99
66343;DHT22;53144;51.524;5.080;2023-07-24T07:33:28;16.94;99.99
66343;DHT22;53144;51.524;5.080;2023-07-24T07:35:54;17.07;99.99
66343;DHT22;53144;51.524;5.080;2023-07-24T07:38:20;17.17;99.99
66343;DHT22;53144;51.524;5.080;2023-07-24T07:40:48;17.52;99.99
66343;DHT22;53144;51.524;5.080;2023-07-24T07:43:13;17.59;99.66
66343;DHT22;53144;51.524;5.080;2023-07-24T07:45:38;17.59;98.73
66343;DHT22;53144;51.524;5.080;2023-07-24T07:48:04;17.45;96.32
66343;DHT22;53144;51.524;5.080;2023-07-24T07:50:30;17.46;97.20
66343;DHT22;53144;51.524;5.080;2023-07-24T07:52:55;17.30;96.87
66343;DHT22;53144;51.524;5.080;2023-07-24T07:55:21;17.38;96.61
66343;DHT22;53144;51.524;5.080;2023-07-24T07:57:46;17.44;96.40
66343;DHT22;53144;51.524;5.080;2023-07-24T08:00:12;17.53;97.62
66343;DHT22;53144;51.524;5.080;2023-07-24T08:02:38;17.65;97.92
66343;DHT22;53144;51.524;5.080;2023-07-24T08:05:06;17.68;95.87
66343;DHT22;53144;51.524;5.080;2023-07-24T08:07:32;17.68;96.84
66343;DHT22;53144;51.524;5.080;2023-07-24T08:09:57;17.65;95.96
66343;DHT22;53144;51.524;5.080;2023-07-24T08:12:23;17.46;95.99
66343;DHT22;53144;51.524;5.080;2023-07-24T08:14:48;17.38;95.53
66343;DHT22;53144;51.524;5.080;2023-07-24T08:17:13;17.34;95.98
66343;DHT22;53144;51.524;5.080;2023-07-24T08:19:39;17.31;96.58
66343;DHT22;53144;51.524;5.080;2023-07-24T08:22:04;17.21;96.97
66343;DHT22;53144;51.524;5.080;2023-07-24T08:24:33;17.20;97.41
66343;DHT22;53144;51.524;5.080;2023-07-24T08:26:59;17.22;97.46
66343;DHT22;53144;51.524;5.080;2023-07-24T08:29:24;17.35;98.57
66343;DHT22;53144;51.524;5.080;2023-07-24T08:31:50;17.18;96.78
66343;DHT22;53144;51.524;5.080;2023-07-24T08:34:15;17.11;96.97
66343;DHT22;53144;51.524;5.080;2023-07-24T08:36:40;17.10;98.00
66343;DHT22;53144;51.524;5.080;2023-07-24T08:39:06;17.06;97.93
66343;DHT22;53144;51.524;5.080;2023-07-24T08:41:31;17.01;98.30
66343;DHT22;53144;51.524;5.080;2023-07-24T08:43:59;16.99;98.36
66343;DHT22;53144;51.524;5.080;2023-07-24T08:46:26;16.99;99.46
66343;DHT22;53144;51.524;5.080;2023-07-24T08:48:52;16.88;98.37
66343;DHT22;53144;51.524;5.080;2023-07-24T08:51:18;17.01;98.57
66343;DHT22;53144;51.524;5.080;2023-07-24T08:53:47;17.10;98.68
66343;DHT22;53144;51.524;5.080;2023-07-24T08:56:13;17.25;98.77
66343;DHT22;53144;51.524;5.080;2023-07-24T08:58:39;17.45;99.99
66343;DHT22;53144;51.524;5.080;2023-07-24T09:01:05;17.51;99.77
66343;DHT22;53144;51.524;5.080;2023-07-24T09:03:32;17.42;98.74
66343;DHT22;53144;51.524;5.080;2023-07-24T09:05:59;17.52;98.22
66343;DHT22;53144;51.524;5.080;2023-07-24T09:08:34;17.59;98.49
66343;DHT22;53144;51.524;5.080;2023-07-24T09:11:01;17.68;98.54
66343;DHT22;53144;51.524;5.080;2023-07-24T09:13:27;17.79;98.71
66343;DHT22;53144;51.524;5.080;2023-07-24T09:15:53;17.83;97.92
66343;DHT22;53144;51.524;5.080;2023-07-24T09:18:19;17.87;97.05
66343;DHT22;53144;51.524;5.080;2023-07-24T09:20:45;17.85;97.55
66343;DHT22;53144;51.524;5.080;2023-07-24T09:23:12;17.97;97.21
66343;DHT22;53144;51.524;5.080;2023-07-24T09:25:39;18.23;97.19
66343;DHT22;53144;51.524;5.080;2023-07-24T09:28:17;18.17;98.35
66343;DHT22;53144;51.524;5.080;2023-07-24T09:30:54;18.04;98.50
66343;DHT22;53144;51.524;5.080;2023-07-24T09:33:41;18.00;98.19
66343;DHT22;53144;51.524;5.080;2023-07-24T09:36:08;17.85;98.54
66343;DHT22;53144;51.524;5.080;2023-07-24T09:38:34;17.86;98.54
66343;DHT22;53144;51.524;5.080;2023-07-24T09:41:01;17.73;97.55
66343;DHT22;53144;51.524;5.080;2023-07-24T09:43:27;17.58;96.44
66343;DHT22;53144;51.524;5.080;2023-07-24T09:45:54;17.51;97.54
66343;DHT22;53144;51.524;5.080;2023-07-24T09:48:23;17.45;97.71
66343;DHT22;53144;51.524;5.080;2023-07-24T09:50:52;17.52;98.31
66343;DHT22;53144;51.524;5.080;2023-07-24T09:56:05;17.62;98.26
66343;DHT22;53144;51.524;5.080;2023-07-24T09:58:36;17.76;98.79
66343;DHT22;53144;51.524;5.080;2023-07-24T10:01:03;17.83;98.85
66343;DHT22;53144;51.524;5.080;2023-07-24T10:03:31;17.90;98.62
66343;DHT22;53144;51.524;5.080;2023-07-24T10:05:57;17.89;97.82
66343;DHT22;53144;51.524;5.080;2023-07-24T10:08:24;18.10;97.90
66343;DHT22;53144;51.524;5.080;2023-07-24T10:10:49;18.26;96.43
66343;DHT22;53144;51.524;5.080;2023-07-24T10:13:17;18.51;96.65
66343;DHT22;53144;51.524;5.080;2023-07-24T10:15:45;18.72;97.92
66343;DHT22;53144;51.524;5.080;2023-07-24T10:18:11;19.05;96.81
66343;DHT22;53144;51.524;5.080;2023-07-24T10:20:39;19.46;93.80
66343;DHT22;53144;51.524;5.080;2023-07-24T10:23:06;19.43;92.91
66343;DHT22;53144;51.524;5.080;2023-07-24T10:25:34;18.99;93.05
66343;DHT22;53144;51.524;5.080;2023-07-24T10:28:08;18.89;94.78
66343;DHT22;53144;51.524;5.080;2023-07-24T10:30:36;18.87;95.42
66343;DHT22;53144;51.524;5.080;2023-07-24T10:33:12;18.79;94.00
66343;DHT22;53144;51.524;5.080;2023-07-24T10:35:43;18.84;95.91
66343;DHT22;53144;51.524;5.080;2023-07-24T10:38:12;18.81;94.10
66343;DHT22;53144;51.524;5.080;2023-07-24T10:40:40;18.76;93.98
66343;DHT22;53144;51.524;5.080;2023-07-24T10:43:08;18.72;94.50
66343;DHT22;53144;51.524;5.080;2023-07-24T10:45:50;18.99;95.01
66343;DHT22;53144;51.524;5.080;2023-07-24T10:48:17;19.40;92.74
66343;DHT22;53144;51.524;5.080;2023-07-24T10:50:44;19.40;93.13
66343;DHT22;53144;51.524;5.080;2023-07-24T10:53:14;19.29;93.59
66343;DHT22;53144;51.524;5.080;2023-07-24T10:55:41;19.10;93.53
66343;DHT22;53144;51.524;5.080;2023-07-24T10:58:07;18.92;93.62
66343;DHT22;53144;51.524;5.080;2023-07-24T11:00:33;18.91;93.06
66343;DHT22;53144;51.524;5.080;2023-07-24T11:02:59;18.75;93.79
66343;DHT22;53144;51.524;5.080;2023-07-24T11:05:24;18.71;93.30
66343;DHT22;53144;51.524;5.080;2023-07-24T11:07:50;18.85;93.14
66343;DHT22;53144;51.524;5.080;2023-07-24T11:10:20;19.29;90.27
66343;DHT22;53144;51.524;5.080;2023-07-24T11:12:46;19.67;88.70
66343;DHT22;53144;51.524;5.080;2023-07-24T11:15:13;20.05;89.02
66343;DHT22;53144;51.524;5.080;2023-07-24T11:17:40;20.29;89.02
66343;DHT22;53144;51.524;5.080;2023-07-24T11:20:13;20.53;86.40
66343;DHT22;53144;51.524;5.080;2023-07-24T11:22:40;20.59;86.01
66343;DHT22;53144;51.524;5.080;2023-07-24T11:25:06;20.73;84.16
66343;DHT22;53144;51.524;5.080;2023-07-24T11:27:32;20.18;87.92
66343;DHT22;53144;51.524;5.080;2023-07-24T11:29:57;19.99;89.66
66343;DHT22;53144;51.524;5.080;2023-07-24T11:32:23;19.89;88.00
66343;DHT22;53144;51.524;5.080;2023-07-24T11:34:49;19.91;88.09
66343;DHT22;53144;51.524;5.080;2023-07-24T11:37:16;19.79;85.76
66343;DHT22;53144;51.524;5.080;2023-07-24T11:39:42;19.81;86.29
66343;DHT22;53144;51.524;5.080;2023-07-24T11:42:07;20.25;87.87
66343;DHT22;53144;51.524;5.080;2023-07-24T11:44:33;20.33;86.44
66343;DHT22;53144;51.524;5.080;2023-07-24T11:49:29;19.79;85.08
66343;DHT22;53144;51.524;5.080;2023-07-24T11:52:06;19.58;86.99
66343;DHT22;53144;51.524;5.080;2023-07-24T11:54:34;19.50;88.62
66343;DHT22;53144;51.524;5.080;2023-07-24T11:57:00;19.53;88.48
66343;DHT22;53144;51.524;5.080;2023-07-24T11:59:26;19.40;87.78
66343;DHT22;53144;51.524;5.080;2023-07-24T12:01:51;19.33;89.85
66343;DHT22;53144;51.524;5.080;2023-07-24T12:04:17;19.30;89.46
66343;DHT22;53144;51.524;5.080;2023-07-24T12:06:43;19.36;91.45
66343;DHT22;53144;51.524;5.080;2023-07-24T12:09:10;20.72;86.47
66343;DHT22;53144;51.524;5.080;2023-07-24T12:11:43;21.49;86.05
66343;DHT22;53144;51.524;5.080;2023-07-24T12:14:09;22.84;80.62
66343;DHT22;53144;51.524;5.080;2023-07-24T12:16:35;22.84;77.94
66343;DHT22;53144;51.524;5.080;2023-07-24T12:19:01;21.34;79.34
66343;DHT22;53144;51.524;5.080;2023-07-24T12:21:26;20.77;82.64
66343;DHT22;53144;51.524;5.080;2023-07-24T12:23:52;20.57;82.61
66343;DHT22;53144;51.524;5.080;2023-07-24T12:26:17;20.29;86.22
66343;DHT22;53144;51.524;5.080;2023-07-24T12:28:43;20.14;84.84
66343;DHT22;53144;51.524;5.080;2023-07-24T12:31:08;19.88;88.08
66343;DHT22;53144;51.524;5.080;2023-07-24T12:33:34;19.68;87.79
66343;DHT22;53144;51.524;5.080;2023-07-24T12:35:59;19.49;89.62
66343;DHT22;53144;51.524;5.080;2023-07-24T12:38:25;19.71;89.76
66343;DHT22;53144;51.524;5.080;2023-07-24T12:40:50;21.32;84.26
66343;DHT22;53144;51.524;5.080;2023-07-24T12:43:15;22.07;80.61
66343;DHT22;53144;51.524;5.080;2023-07-24T12:45:41;22.47;80.92
66343;DHT22;53144;51.524;5.080;2023-07-24T12:48:06;23.74;77.22
66343;DHT22;53144;51.524;5.080;2023-07-24T12:50:33;23.61;76.28
66343;DHT22;53144;51.524;5.080;2023-07-24T12:52:58;22.52;77.70
66343;DHT22;53144;51.524;5.080;2023-07-24T12:55:23;21.41;81.08
66343;DHT22;53144;51.524;5.080;2023-07-24T12:57:49;20.95;84.97
66343;DHT22;53144;51.524;5.080;2023-07-24T13:00:14;20.43;86.14
66343;DHT22;53144;51.524;5.080;2023-07-24T13:02:40;20.08;87.27
66343;DHT22;53144;51.524;5.080;2023-07-24T13:05:05;19.89;87.83
66343;DHT22;53144;51.524;5.080;2023-07-24T13:07:31;19.82;87.93
66343;DHT22;53144;51.524;5.080;2023-07-24T13:09:56;19.67;85.91
66343;DHT22;53144;51.524;5.080;2023-07-24T13:12:22;19.37;85.78
66343;DHT22;53144;51.524;5.080;2023-07-24T13:14:47;19.37;86.33
66343;DHT22;53144;51.524;5.080;2023-07-24T13:17:12;19.34;89.42
66343;DHT22;53144;51.524;5.080;2023-07-24T13:19:38;19.31;90.04
66343;DHT22;53144;51.524;5.080;2023-07-24T13:22:03;19.27;90.96
66343;DHT22;53144;51.524;5.080;2023-07-24T13:24:29;19.26;88.05
66343;DHT22;53144;51.524;5.080;2023-07-24T13:26:54;19.22;88.83
66343;DHT22;53144;51.524;5.080;2023-07-24T13:29:20;19.12;88.89
66343;DHT22;53144;51.524;5.080;2023-07-24T13:31:45;19.00;89.68
66343;DHT22;53144;51.524;5.080;2023-07-24T13:34:11;19.02;91.30
66343;DHT22;53144;51.524;5.080;2023-07-24T13:36:36;19.10;91.10
66343;DHT22;53144;51.524;5.080;2023-07-24T13:39:02;19.23;86.20
66343;DHT22;53144;51.524;5.080;2023-07-24T13:41:28;19.37;87.19
66343;DHT22;53144;51.524;5.080;2023-07-24T13:43:53;19.43;85.24
66343;DHT22;53144;51.524;5.080;2023-07-24T13:46:18;19.31;83.08
66343;DHT22;53144;51.524;5.080;2023-07-24T13:48:44;19.20;85.51
66343;DHT22;53144;51.524;5.080;2023-07-24T13:51:09;19.22;84.77
66343;DHT22;53144;51.524;5.080;2023-07-24T13:53:35;19.50;84.37
66343;DHT22;53144;51.524;5.080;2023-07-24T13:56:01;19.91;86.76
66343;DHT22;53144;51.524;5.080;2023-07-24T13:58:26;20.30;82.33
66343;DHT22;53144;51.524;5.080;2023-07-24T14:00:52;20.26;82.29
66343;DHT22;53144;51.524;5.080;2023-07-24T14:03:17;20.25;84.97
66343;DHT22;53144;51.524;5.080;2023-07-24T14:05:43;20.21;83.73
66343;DHT22;53144;51.524;5.080;2023-07-24T14:08:08;20.05;80.49
66343;DHT22;53144;51.524;5.080;2023-07-24T14:10:34;20.28;80.46
66343;DHT22;53144;51.524;5.080;2023-07-24T14:12:59;20.52;80.84
66343;DHT22;53144;51.524;5.080;2023-07-24T14:15:25;20.65;79.92
66343;DHT22;53144;51.524;5.080;2023-07-24T14:17:50;20.50;80.49
66343;DHT22;53144;51.524;5.080;2023-07-24T14:20:15;20.28;81.82
66343;DHT22;53144;51.524;5.080;2023-07-24T14:22:41;20.25;81.06
66343;DHT22;53144;51.524;5.080;2023-07-24T14:25:07;20.32;81.23
66343;DHT22;53144;51.524;5.080;2023-07-24T14:27:32;20.24;80.18
66343;DHT22;53144;51.524;5.080;2023-07-24T14:29:57;19.98;82.29
66343;DHT22;53144;51.524;5.080;2023-07-24T14:32:23;19.94;81.73
66343;DHT22;53144;51.524;5.080;2023-07-24T14:34:50;19.98;81.90
66343;DHT22;53144;51.524;5.080;2023-07-24T14:37:16;20.08;81.64
66343;DHT22;53144;51.524;5.080;2023-07-24T14:39:41;20.25;83.40
66343;DHT22;53144;51.524;5.080;2023-07-24T14:42:07;20.29;81.54
66343;DHT22;53144;51.524;5.080;2023-07-24T14:44:32;20.28;81.36
66343;DHT22;53144;51.524;5.080;2023-07-24T14:46:58;20.22;79.72
66343;DHT22;53144;51.524;5.080;2023-07-24T14:49:23;20.04;78.86
66343;DHT22;53144;51.524;5.080;2023-07-24T14:51:48;20.04;79.24
66343;DHT22;53144;51.524;5.080;2023-07-24T14:54:14;20.09;79.28
66343;DHT22;53144;51.524;5.080;2023-07-24T14:56:39;20.26;80.08
66343;DHT22;53144;51.524;5.080;2023-07-24T14:59:04;20.29;80.21
66343;DHT22;53144;51.524;5.080;2023-07-24T15:01:30;20.02;80.04
66343;DHT22;53144;51.524;5.080;2023-07-24T15:03:58;19.81;80.99
66343;DHT22;53144;51.524;5.080;2023-07-24T15:06:24;19.78;82.60
66343;DHT22;53144;51.524;5.080;2023-07-24T15:08:50;19.61;82.86
66343;DHT22;53144;51.524;5.080;2023-07-24T15:11:21;19.34;81.26
66343;DHT22;53144;51.524;5.080;2023-07-24T15:13:48;19.22;83.25
66343;DHT22;53144;51.524;5.080;2023-07-24T15:16:13;18.82;84.95
66343;DHT22;53144;51.524;5.080;2023-07-24T15:18:39;18.48;88.90
66343;DHT22;53144;51.524;5.080;2023-07-24T15:21:04;18.06;91.33
66343;DHT22;53144;51.524;5.080;2023-07-24T15:23:29;17.79;93.86
66343;DHT22;53144;51.524;5.080;2023-07-24T15:25:55;17.87;96.73
66343;DHT22;53144;51.524;5.080;2023-07-24T15:28:20;17.73;97.16